createdAt,value
2024-02-27T00:04:54.096Z,4.25
2024-02-27T00:07:25.304Z,5.30
2024-02-27T00:09:53.719Z,4.03
2024-02-27T00:12:23.203Z,6.40
2024-02-27T00:14:52.456Z,5.30
2024-02-27T00:17:22.294Z,5.82
2024-02-27T00:19:50.914Z,6.80
2024-02-27T00:22:19.349Z,7.72
2024-02-27T00:24:49.157Z,6.18
2024-02-27T00:30:03.736Z,4.35
2024-02-27T00:32:32.118Z,4.45
2024-02-27T00:35:00.711Z,4.78
2024-02-27T00:37:29.282Z,4.65
2024-02-27T00:39:59.201Z,4.32
2024-02-27T00:42:27.718Z,4.60
2024-02-27T00:44:56.310Z,4.63
2024-02-27T00:47:24.878Z,5.22
2024-02-27T00:49:53.435Z,3.83
2024-02-27T00:52:22.127Z,4.40
2024-02-27T00:54:50.634Z,3.50
2024-02-27T00:57:20.429Z,4.20
2024-02-27T00:59:48.914Z,3.50
2024-02-27T01:02:17.347Z,3.92
2024-02-27T01:04:48.471Z,3.72
2024-02-27T01:07:17.053Z,3.97
2024-02-27T01:09:45.685Z,3.58
2024-02-27T01:12:14.289Z,3.92
2024-02-27T01:14:44.092Z,3.90
2024-02-27T01:17:15.464Z,3.72
2024-02-27T01:19:44.050Z,3.53
2024-02-27T01:22:13.777Z,4.00
2024-02-27T01:24:42.445Z,6.90
2024-02-27T01:27:11.019Z,4.82
2024-02-27T01:29:39.419Z,4.38
2024-02-27T01:32:10.824Z,5.50
2024-02-27T01:34:39.415Z,4.13
2024-02-27T01:37:08.467Z,3.95
2024-02-27T01:39:36.963Z,3.72
2024-02-27T01:42:08.492Z,4.53
2024-02-27T01:44:37.366Z,3.83
2024-02-27T01:47:06.056Z,5.22
2024-02-27T01:49:36.031Z,5.57
2024-02-27T01:52:04.922Z,5.07
2024-02-27T01:54:33.395Z,4.13
2024-02-27T01:57:01.996Z,5.00
2024-02-27T01:59:31.214Z,3.83
2024-02-27T02:02:02.104Z,4.22
2024-02-27T02:04:31.593Z,4.10
2024-02-27T02:07:01.687Z,3.97
2024-02-27T02:09:30.184Z,5.00
2024-02-27T02:11:59.917Z,3.92
2024-02-27T02:14:28.569Z,4.07
2024-02-27T02:16:57.630Z,4.10
2024-02-27T02:19:26.119Z,4.15
2024-02-27T02:21:58.028Z,7.22
2024-02-27T02:24:28.179Z,4.72
2024-02-27T02:26:58.247Z,6.93
2024-02-27T02:29:26.912Z,4.97
2024-02-27T02:31:55.318Z,4.85
2024-02-27T02:34:23.792Z,4.75
2024-02-27T02:36:52.182Z,4.85
2024-02-27T02:39:22.491Z,4.13
2024-02-27T02:41:50.906Z,4.57
2024-02-27T02:44:19.347Z,4.78
2024-02-27T02:46:47.769Z,4.25
2024-02-27T02:49:16.373Z,4.78
2024-02-27T02:51:44.917Z,4.60
2024-02-27T02:54:13.377Z,4.22
2024-02-27T02:56:43.244Z,4.07
2024-02-27T02:59:11.564Z,4.15
2024-02-27T03:01:39.896Z,4.68
2024-02-27T03:04:09.622Z,4.00
2024-02-27T03:06:38.232Z,3.58
2024-02-27T03:09:09.633Z,5.55
2024-02-27T03:11:38.033Z,5.30
2024-02-27T03:14:08.587Z,16.48
2024-02-27T03:16:37.052Z,11.55
2024-02-27T03:19:05.577Z,10.30
2024-02-27T03:21:34.423Z,6.97
2024-02-27T03:24:02.853Z,7.82
2024-02-27T03:26:31.445Z,4.35
2024-02-27T03:29:00.161Z,4.15
2024-02-27T03:31:29.904Z,4.05
2024-02-27T03:33:58.470Z,3.97
2024-02-27T03:36:26.856Z,4.82
2024-02-27T03:38:55.312Z,4.53
2024-02-27T03:41:23.796Z,4.13
2024-02-27T03:43:52.150Z,3.80
2024-02-27T03:46:20.612Z,4.00
2024-02-27T03:48:50.469Z,4.05
2024-02-27T03:51:18.981Z,3.55
2024-02-27T03:53:47.286Z,4.85
2024-02-27T03:56:15.804Z,4.90
2024-02-27T03:58:44.239Z,10.10
2024-02-27T04:01:17.530Z,5.35
2024-02-27T04:03:46.393Z,5.07
2024-02-27T04:06:16.423Z,9.27
2024-02-27T04:08:44.944Z,7.05
2024-02-27T04:11:13.319Z,5.30
2024-02-27T04:13:41.713Z,4.75
2024-02-27T04:16:10.138Z,5.10
2024-02-27T04:18:38.581Z,5.97
2024-02-27T04:21:07.413Z,7.90
2024-02-27T04:23:37.168Z,5.05
2024-02-27T04:26:05.920Z,4.25
2024-02-27T04:28:34.293Z,7.07
2024-02-27T04:31:03.665Z,4.70
2024-02-27T04:33:32.178Z,5.25
2024-02-27T04:36:00.780Z,6.20
2024-02-27T04:38:29.070Z,4.90
2024-02-27T04:40:58.813Z,7.15
2024-02-27T04:43:27.228Z,7.25
2024-02-27T04:45:55.646Z,9.75
2024-02-27T04:48:24.123Z,11.70
2024-02-27T04:50:52.576Z,8.57
2024-02-27T04:53:20.924Z,5.88
2024-02-27T04:55:49.282Z,14.55
2024-02-27T04:58:19.060Z,8.13
2024-02-27T05:00:47.630Z,6.70
2024-02-27T05:03:16.068Z,9.32
2024-02-27T05:05:44.433Z,9.88
2024-02-27T05:08:12.812Z,9.13
2024-02-27T05:10:41.324Z,7.80
2024-02-27T05:13:10.094Z,7.90
2024-02-27T05:15:40.447Z,8.13
2024-02-27T05:18:09.325Z,12.00
2024-02-27T05:20:37.749Z,12.70
2024-02-27T05:23:06.336Z,14.13
2024-02-27T05:25:34.808Z,9.10
2024-02-27T05:28:03.238Z,11.35
2024-02-27T05:30:31.975Z,11.32
2024-02-27T05:33:01.945Z,12.40
2024-02-27T05:35:30.494Z,11.93
2024-02-27T05:37:58.989Z,13.48
2024-02-27T05:40:27.369Z,16.40
2024-02-27T05:42:55.796Z,16.35
2024-02-27T05:45:24.214Z,14.82
2024-02-27T05:47:52.710Z,11.35
2024-02-27T05:50:22.829Z,13.05
2024-02-27T05:52:51.617Z,13.68
2024-02-27T05:55:19.985Z,19.92
2024-02-27T05:57:48.410Z,18.48
2024-02-27T06:00:18.392Z,17.63
2024-02-27T06:02:46.856Z,19.38
2024-02-27T06:05:15.312Z,14.90
2024-02-27T06:07:46.546Z,15.02
2024-02-27T06:10:14.988Z,16.60
2024-02-27T06:12:43.410Z,13.55
2024-02-27T06:15:12.226Z,19.73
2024-02-27T06:17:40.661Z,16.38
2024-02-27T06:20:31.116Z,20.77
2024-02-27T06:23:00.012Z,19.70
2024-02-27T06:25:28.421Z,21.23
2024-02-27T06:27:57.218Z,26.30
2024-02-27T06:30:25.644Z,24.27
2024-02-27T06:32:54.630Z,27.90
2024-02-27T06:35:23.393Z,29.67
2024-02-27T06:37:51.989Z,29.25
2024-02-27T06:40:21.777Z,27.90
2024-02-27T06:42:50.170Z,33.53
2024-02-27T06:45:18.800Z,28.90
2024-02-27T06:47:47.708Z,33.00
2024-02-27T06:50:17.460Z,38.42
2024-02-27T06:52:46.038Z,59.65
2024-02-27T06:55:14.522Z,41.10
2024-02-27T06:57:45.099Z,40.17
2024-02-27T07:00:14.201Z,39.08
2024-02-27T07:02:42.697Z,37.40
2024-02-27T07:05:11.335Z,37.72
2024-02-27T07:07:39.714Z,38.38
2024-02-27T07:10:08.772Z,40.78
2024-02-27T07:12:37.232Z,40.63
2024-02-27T07:15:08.024Z,45.13
2024-02-27T07:17:37.123Z,44.45
2024-02-27T07:20:08.207Z,43.85
2024-02-27T07:22:36.631Z,44.70
2024-02-27T07:25:06.813Z,45.45
2024-02-27T07:27:35.211Z,54.28
2024-02-27T07:30:05.591Z,52.45
2024-02-27T07:32:35.587Z,51.20
2024-02-27T07:35:04.213Z,56.25
2024-02-27T07:37:32.800Z,56.72
2024-02-27T07:40:01.169Z,62.30
2024-02-27T07:42:29.617Z,61.75
2024-02-27T07:44:58.125Z,66.53
2024-02-27T07:47:26.613Z,59.53
2024-02-27T07:49:56.455Z,55.35
2024-02-27T07:52:24.906Z,52.70
2024-02-27T07:54:53.332Z,51.28
2024-02-27T07:57:24.787Z,48.50
2024-02-27T07:59:53.309Z,45.45
2024-02-27T08:02:23.070Z,46.63
2024-02-27T08:04:51.399Z,42.85
2024-02-27T08:07:21.268Z,41.17
2024-02-27T08:09:49.695Z,43.80
2024-02-27T08:12:18.000Z,49.38
2024-02-27T08:14:46.612Z,45.45
2024-02-27T08:17:15.042Z,42.67
2024-02-27T08:19:44.562Z,40.08
2024-02-27T08:22:13.410Z,36.10
2024-02-27T08:24:43.303Z,36.70
2024-02-27T08:27:11.832Z,34.53
2024-02-27T08:29:40.154Z,39.08
2024-02-27T08:32:08.791Z,35.58
2024-02-27T08:34:37.199Z,30.50
2024-02-27T08:37:06.505Z,30.88
2024-02-27T08:39:35.081Z,29.10
2024-02-27T08:42:05.336Z,31.48
2024-02-27T08:44:33.737Z,30.30
2024-02-27T08:47:04.397Z,28.85
2024-02-27T08:49:32.903Z,32.25
2024-02-27T08:52:02.500Z,29.13
2024-02-27T08:54:32.165Z,32.05
2024-02-27T08:57:00.572Z,31.17
2024-02-27T08:59:30.348Z,32.53
2024-02-27T09:01:58.724Z,32.70
2024-02-27T09:04:27.370Z,27.92
2024-02-27T09:06:55.999Z,28.58
2024-02-27T09:09:24.415Z,27.17
2024-02-27T09:11:53.142Z,31.23
2024-02-27T09:14:23.577Z,30.50
2024-02-27T09:16:53.378Z,31.35
2024-02-27T09:19:23.445Z,33.17
2024-02-27T09:21:52.005Z,32.83
2024-02-27T09:24:20.415Z,27.85
2024-02-27T09:26:49.156Z,27.35
2024-02-27T09:29:17.518Z,29.90
2024-02-27T09:31:47.992Z,27.95
2024-02-27T09:34:17.835Z,29.05
2024-02-27T09:36:46.383Z,29.25
2024-02-27T09:39:14.887Z,27.73
2024-02-27T09:41:54.859Z,30.45
2024-02-27T09:44:23.372Z,31.45
2024-02-27T09:46:54.155Z,27.88
2024-02-27T09:49:33.155Z,28.02
2024-02-27T09:52:11.779Z,45.85
2024-02-27T09:54:41.595Z,41.17
2024-02-27T09:57:11.082Z,36.08
2024-02-27T09:59:39.742Z,29.55
2024-02-27T10:02:11.155Z,28.05
2024-02-27T10:04:42.490Z,29.08
2024-02-27T10:07:11.799Z,30.73
2024-02-27T10:09:43.184Z,36.47
2024-02-27T10:12:13.356Z,32.95
2024-02-27T10:14:42.995Z,31.08
2024-02-27T10:17:11.870Z,29.20
2024-02-27T10:19:41.882Z,29.60
2024-02-27T10:22:10.404Z,28.98
2024-02-27T10:24:38.797Z,28.67
2024-02-27T10:27:09.307Z,29.40
2024-02-27T10:29:38.232Z,28.20
2024-02-27T10:32:09.624Z,25.67
2024-02-27T10:35:01.763Z,27.45
2024-02-27T10:37:32.978Z,31.55
2024-02-27T10:40:02.971Z,29.33
2024-02-27T10:42:32.393Z,33.08
2024-02-27T10:45:01.374Z,32.95
2024-02-27T10:47:30.258Z,35.35
2024-02-27T10:50:01.279Z,33.10
2024-02-27T10:52:32.409Z,26.83
2024-02-27T10:55:02.147Z,25.23
2024-02-27T10:57:31.136Z,26.23
2024-02-27T11:00:00.552Z,35.90
2024-02-27T11:02:30.214Z,32.22
2024-02-27T11:05:01.968Z,29.17
2024-02-27T11:07:31.164Z,34.47
2024-02-27T11:10:02.281Z,30.92
2024-02-27T11:12:34.840Z,24.75
2024-02-27T11:15:06.132Z,25.50
2024-02-27T11:17:39.177Z,27.77
2024-02-27T11:20:10.805Z,24.92
2024-02-27T11:22:40.504Z,31.25
2024-02-27T11:25:10.913Z,26.42
2024-02-27T11:27:40.996Z,28.00
2024-02-27T11:30:11.389Z,27.90
2024-02-27T11:32:39.974Z,26.95
2024-02-27T11:35:12.244Z,34.30
2024-02-27T11:37:40.677Z,28.05
2024-02-27T11:40:10.442Z,30.92
2024-02-27T11:42:41.893Z,26.10
2024-02-27T11:45:11.469Z,25.92
2024-02-27T11:47:42.849Z,27.25
2024-02-27T11:50:14.015Z,27.45
2024-02-27T11:52:45.354Z,30.55
2024-02-27T11:55:14.843Z,26.50
2024-02-27T11:57:43.224Z,29.05
2024-02-27T12:00:15.940Z,26.13
2024-02-27T12:02:49.415Z,31.38
2024-02-27T12:05:19.874Z,28.98
2024-02-27T12:07:48.415Z,26.80
2024-02-27T12:10:17.865Z,27.88
2024-02-27T12:12:47.037Z,31.73
2024-02-27T12:15:15.947Z,32.20
2024-02-27T12:17:44.484Z,29.73
2024-02-27T12:20:14.528Z,28.40
2024-02-27T12:22:46.533Z,29.83
2024-02-27T12:25:16.427Z,28.83
2024-02-27T12:27:46.115Z,45.65
2024-02-27T12:30:15.383Z,29.67
2024-02-27T12:32:45.309Z,28.67
2024-02-27T12:35:14.993Z,29.77
2024-02-27T12:37:46.927Z,27.33
2024-02-27T12:40:17.019Z,28.85
2024-02-27T12:42:47.259Z,33.00
2024-02-27T12:45:17.661Z,29.58
2024-02-27T12:47:48.449Z,32.05
2024-02-27T12:50:20.661Z,30.65
2024-02-27T12:52:58.879Z,28.70
2024-02-27T12:55:35.537Z,28.33
2024-02-27T12:58:04.086Z,28.92
2024-02-27T13:00:33.853Z,36.65
2024-02-27T13:03:02.695Z,35.42
2024-02-27T13:05:31.178Z,29.25
2024-02-27T13:08:01.151Z,28.38
2024-02-27T13:10:29.621Z,27.95
2024-02-27T13:13:10.773Z,30.88
2024-02-27T13:15:39.827Z,37.75
2024-02-27T13:18:11.120Z,27.90
2024-02-27T13:20:41.596Z,28.38
2024-02-27T13:23:21.326Z,29.08
2024-02-27T13:25:54.723Z,26.85
2024-02-27T13:28:23.440Z,28.48
2024-02-27T13:30:52.056Z,27.63
2024-02-27T13:33:20.652Z,32.30
2024-02-27T13:35:49.113Z,30.20
2024-02-27T13:38:18.974Z,27.23
2024-02-27T13:40:49.257Z,26.77
2024-02-27T13:43:18.360Z,29.73
2024-02-27T13:45:46.744Z,27.83
2024-02-27T13:48:15.208Z,26.67
2024-02-27T13:50:43.921Z,28.60
2024-02-27T13:53:14.302Z,32.33
2024-02-27T13:55:44.175Z,31.85
2024-02-27T13:58:12.728Z,37.90
2024-02-27T14:00:41.402Z,42.95
2024-02-27T14:03:11.015Z,35.83
2024-02-27T14:05:39.946Z,28.15
2024-02-27T14:08:09.034Z,33.78
2024-02-27T14:10:39.507Z,32.38
2024-02-27T14:13:10.267Z,35.83
2024-02-27T14:15:38.794Z,32.05
2024-02-27T14:18:07.637Z,34.53
2024-02-27T14:20:36.362Z,41.17
2024-02-27T14:23:04.869Z,46.10
2024-02-27T14:25:36.147Z,40.20
2024-02-27T14:28:06.673Z,40.83
2024-02-27T14:30:36.508Z,40.53
2024-02-27T14:33:05.384Z,34.15
2024-02-27T14:35:36.523Z,31.38
2024-02-27T14:38:05.259Z,35.50
2024-02-27T14:40:33.688Z,46.92
2024-02-27T14:43:02.538Z,38.65
2024-02-27T14:45:30.973Z,44.72
2024-02-27T14:48:00.889Z,48.53
2024-02-27T14:50:29.218Z,45.92
2024-02-27T14:52:57.610Z,49.08
2024-02-27T14:55:25.957Z,37.03
2024-02-27T14:57:54.364Z,41.70
2024-02-27T15:00:23.218Z,38.30
2024-02-27T15:02:51.641Z,44.90
2024-02-27T15:05:21.724Z,30.83
2024-02-27T15:07:50.244Z,28.58
2024-02-27T15:10:18.968Z,32.95
2024-02-27T15:12:47.673Z,34.47
2024-02-27T15:15:16.634Z,32.55
2024-02-27T15:17:45.266Z,31.50
2024-02-27T15:20:14.225Z,40.10
2024-02-27T15:22:44.432Z,33.38
2024-02-27T15:25:12.987Z,36.50
2024-02-27T15:27:41.988Z,37.70
2024-02-27T15:30:12.284Z,40.22
2024-02-27T15:32:40.797Z,41.53
2024-02-27T15:35:10.100Z,33.63
2024-02-27T15:37:38.445Z,49.17
2024-02-27T15:40:09.313Z,47.88
2024-02-27T15:42:37.949Z,37.38
2024-02-27T15:45:07.426Z,34.65
2024-02-27T15:47:35.815Z,34.00
2024-02-27T15:50:04.413Z,38.30
2024-02-27T15:52:32.787Z,40.95
2024-02-27T15:55:01.274Z,36.33
2024-02-27T15:57:31.056Z,53.00
2024-02-27T15:59:59.460Z,56.10
2024-02-27T16:02:29.219Z,30.58
2024-02-27T16:04:59.385Z,31.35
2024-02-27T16:07:33.903Z,34.50
2024-02-27T16:10:05.052Z,32.53
2024-02-27T16:12:37.016Z,33.55
2024-02-27T16:15:08.325Z,31.08
2024-02-27T16:17:37.016Z,37.90
2024-02-27T16:20:06.389Z,33.17
2024-02-27T16:22:34.780Z,34.33
2024-02-27T16:25:03.951Z,38.30
2024-02-27T16:27:32.461Z,33.28
2024-02-27T16:30:04.156Z,30.92
2024-02-27T16:32:33.822Z,29.15
2024-02-27T16:35:02.230Z,28.88
2024-02-27T16:37:30.653Z,30.20
2024-02-27T16:39:59.122Z,31.17
2024-02-27T16:42:27.524Z,30.20
2024-02-27T16:44:56.663Z,31.20
2024-02-27T16:47:26.674Z,30.40
2024-02-27T16:49:55.129Z,32.42
2024-02-27T16:52:24.111Z,31.85
2024-02-27T16:54:53.242Z,35.45
2024-02-27T16:57:21.643Z,33.45
2024-02-27T16:59:49.957Z,36.85
2024-02-27T17:02:19.037Z,36.25
2024-02-27T17:04:49.005Z,34.60
2024-02-27T17:07:17.513Z,33.97
2024-02-27T17:09:46.027Z,30.45
2024-02-27T17:12:14.730Z,34.03
2024-02-27T17:14:43.186Z,32.70
2024-02-27T17:17:14.555Z,31.63
2024-02-27T17:19:43.213Z,34.42
2024-02-27T17:22:12.935Z,33.00
2024-02-27T17:24:41.280Z,36.47
2024-02-27T17:27:10.622Z,32.88
2024-02-27T17:29:39.015Z,31.67
2024-02-27T17:32:12.678Z,31.60
2024-02-27T17:34:42.982Z,31.67
2024-02-27T17:37:13.201Z,33.28
2024-02-27T17:39:41.717Z,34.40
2024-02-27T17:42:11.486Z,35.78
2024-02-27T17:44:39.893Z,32.78
2024-02-27T17:47:09.295Z,39.35
2024-02-27T17:49:39.323Z,33.05
2024-02-27T17:52:08.521Z,34.03
2024-02-27T17:54:38.368Z,34.40
2024-02-27T17:57:06.949Z,36.72
2024-02-27T17:59:35.376Z,32.15
2024-02-27T18:02:04.460Z,34.00
2024-02-27T18:04:33.064Z,31.45
2024-02-27T18:07:01.704Z,34.85
2024-02-27T18:09:30.503Z,36.10
2024-02-27T18:12:00.297Z,33.85
2024-02-27T18:14:29.228Z,34.33
2024-02-27T18:16:57.794Z,32.85
2024-02-27T18:19:26.936Z,38.35
2024-02-27T18:21:55.620Z,35.58
2024-02-27T18:24:24.062Z,33.38
2024-02-27T18:26:52.811Z,33.75
2024-02-27T18:29:22.700Z,36.58
2024-02-27T18:31:51.160Z,33.15
2024-02-27T18:34:20.330Z,35.15
2024-02-27T18:36:50.190Z,36.95
2024-02-27T18:39:19.335Z,36.95
2024-02-27T18:41:47.833Z,36.05
2024-02-27T18:44:16.409Z,41.42
2024-02-27T18:46:46.137Z,37.03
2024-02-27T18:49:14.674Z,35.58
2024-02-27T18:51:43.291Z,35.70
2024-02-27T18:54:11.799Z,35.78
2024-02-27T18:56:40.886Z,34.78
2024-02-27T18:59:09.269Z,39.90
2024-02-27T19:01:38.029Z,39.38
2024-02-27T19:04:11.091Z,36.70
2024-02-27T19:06:44.788Z,35.53
2024-02-27T19:09:13.572Z,35.88
2024-02-27T19:11:42.705Z,34.85
2024-02-27T19:14:12.105Z,37.97
2024-02-27T19:16:42.553Z,34.30
2024-02-27T19:19:12.986Z,35.58
2024-02-27T19:21:41.949Z,35.80
2024-02-27T19:24:10.629Z,33.92
2024-02-27T19:26:39.192Z,33.72
2024-02-27T19:29:07.965Z,34.45
2024-02-27T19:31:36.678Z,33.85
2024-02-27T19:34:05.254Z,36.03
2024-02-27T19:36:35.059Z,35.08
2024-02-27T19:39:05.010Z,35.22
2024-02-27T19:41:33.953Z,42.05
2024-02-27T19:44:03.156Z,37.85
2024-02-27T19:46:33.417Z,40.95
2024-02-27T19:49:02.049Z,36.67
2024-02-27T19:51:30.467Z,34.20
2024-02-27T19:54:03.131Z,35.88
2024-02-27T19:56:32.750Z,37.53
2024-02-27T19:59:01.161Z,35.88
2024-02-27T20:01:29.945Z,40.38
2024-02-27T20:03:59.020Z,38.67
2024-02-27T20:06:28.263Z,38.35
2024-02-27T20:08:57.184Z,36.90
2024-02-27T20:11:27.001Z,35.85
2024-02-27T20:13:55.903Z,36.55
2024-02-27T20:16:24.395Z,36.92
2024-02-27T20:18:54.457Z,39.08
2024-02-27T20:21:23.830Z,36.97
2024-02-27T20:23:52.324Z,36.15
2024-02-27T20:26:20.950Z,38.28
2024-02-27T20:28:56.985Z,38.78
2024-02-27T20:31:25.361Z,37.88
2024-02-27T20:33:55.203Z,35.45
2024-02-27T20:36:23.906Z,34.90
2024-02-27T20:38:52.330Z,37.97
2024-02-27T20:41:20.656Z,37.88
2024-02-27T20:43:50.372Z,38.67
2024-02-27T20:46:20.762Z,35.72
2024-02-27T20:48:51.445Z,37.65
2024-02-27T20:51:21.484Z,37.50
2024-02-27T20:53:49.900Z,36.35
2024-02-27T20:56:19.300Z,39.92
2024-02-27T20:58:47.735Z,38.22
2024-02-27T21:01:17.612Z,39.17
2024-02-27T21:03:46.148Z,39.00
2024-02-27T21:06:14.772Z,39.92
2024-02-27T21:08:44.405Z,36.80
2024-02-27T21:11:12.983Z,37.70
2024-02-27T21:13:41.397Z,41.70
2024-02-27T21:16:09.781Z,38.30
2024-02-27T21:18:39.655Z,38.92
2024-02-27T21:21:08.157Z,42.92
2024-02-27T21:23:36.999Z,37.95
2024-02-27T21:26:09.434Z,38.47
2024-02-27T21:28:37.824Z,42.78
2024-02-27T21:31:06.458Z,39.55
2024-02-27T21:33:34.879Z,37.70
2024-02-27T21:36:05.123Z,36.58
2024-02-27T21:38:33.474Z,37.40
2024-02-27T21:41:02.232Z,38.00
2024-02-27T21:43:30.611Z,38.70
2024-02-27T21:46:00.230Z,42.63
2024-02-27T21:48:28.827Z,36.47
2024-02-27T21:50:57.173Z,37.67
2024-02-27T21:53:26.851Z,37.88
2024-02-27T21:55:55.200Z,35.42
2024-02-27T21:58:23.603Z,35.92
2024-02-27T22:00:52.436Z,38.20
2024-02-27T22:03:21.293Z,39.72
2024-02-27T22:05:49.656Z,39.63
2024-02-27T22:08:18.526Z,41.05
2024-02-27T22:10:49.074Z,39.10
2024-02-27T22:13:18.181Z,41.83
2024-02-27T22:15:46.485Z,37.42
2024-02-27T22:18:15.025Z,45.20
2024-02-27T22:20:43.479Z,41.33
2024-02-27T22:23:11.872Z,40.08
2024-02-27T22:25:41.609Z,39.45
2024-02-27T22:28:11.938Z,39.53
2024-02-27T22:30:40.415Z,39.08
2024-02-27T22:33:11.370Z,38.25
2024-02-27T22:35:40.154Z,47.50
2024-02-27T22:38:10.762Z,49.03
2024-02-27T22:40:41.717Z,44.40
2024-02-27T22:43:11.495Z,41.72
2024-02-27T22:45:41.526Z,41.88
2024-02-27T22:48:10.718Z,42.85
2024-02-27T22:50:39.957Z,43.05
2024-02-27T22:53:10.216Z,40.90
2024-02-27T22:55:39.099Z,43.63
2024-02-27T22:58:07.765Z,41.95
2024-02-27T23:00:37.954Z,42.75
2024-02-27T23:03:07.901Z,39.40
2024-02-27T23:05:36.492Z,38.97
2024-02-27T23:08:05.258Z,40.00
2024-02-27T23:10:33.602Z,43.92
2024-02-27T23:13:01.942Z,39.22
2024-02-27T23:15:30.334Z,40.75
2024-02-27T23:18:00.153Z,39.35
2024-02-27T23:20:28.841Z,38.97
2024-02-27T23:22:57.159Z,41.22
2024-02-27T23:25:25.517Z,38.83
2024-02-27T23:27:54.066Z,42.35
2024-02-27T23:30:22.556Z,40.03
2024-02-27T23:32:51.014Z,40.67
2024-02-27T23:35:21.411Z,42.97
2024-02-27T23:37:49.803Z,44.45
2024-02-27T23:40:18.917Z,40.88
2024-02-27T23:42:47.548Z,45.60
2024-02-27T23:45:16.097Z,43.97
2024-02-27T23:47:44.551Z,39.83
2024-02-27T23:50:13.195Z,42.83
2024-02-27T23:52:42.890Z,41.40
2024-02-27T23:55:11.872Z,42.90
2024-02-27T23:57:41.103Z,38.97
